Time;durP1;ratioP1;P1;durP2;ratioP2;P2;SDS_P1;SDS_P2;PMS_P1;PMS_P2;Temp;Humidity;BMP_temperature;BMP_pressure;BME280_temperature;BME280_humidity;BME280_pressure;Samples;Min_cycle;Max_cycle;Signal;HPM_P1;HPM_P2
2022/04/17 05:10:36;;;;;;;;;;;;;;;18.38;43.32;102983.91;5540034;23;19985;-77
2022/04/17 05:13:01;;;;;;;;;;;;;;;18.34;42.75;102983.81;4989549;28;19921;-77
2022/04/17 05:15:26;;;;;;;;;;;;;;;18.28;42.96;102989.75;4974189;28;20357;-75
2022/04/17 05:17:51;;;;;;;;;;;;;;;18.16;43.44;102985.16;4987390;28;19971;-75
2022/04/17 05:20:17;;;;;;;;;;;;;;;18.14;43.19;102981.63;4970489;28;19918;-74
2022/04/17 05:22:44;;;;;;;;;;;;;;;18.13;43.20;102985.06;4982166;28;19981;-74
2022/04/17 05:25:09;;;;;;;;;;;;;;;18.12;42.97;102983.31;4981876;28;19917;-75
2022/04/17 05:27:34;;;;;;;;;;;;;;;18.11;42.86;102986.75;4981063;28;19964;-74
2022/04/17 05:30:00;;;;;;;;;;;;;;;18.15;43.23;102993.81;4980773;28;19953;-74
2022/04/17 05:32:25;;;;;;;;;;;;;;;18.12;43.20;102988.53;4980155;28;19965;-74
2022/04/17 05:34:50;;;;;;;;;;;;;;;18.16;42.99;102990.38;4979898;28;19917;-74
2022/04/17 05:37:15;;;;;;;;;;;;;;;18.18;43.29;102988.69;4963992;28;19961;-74
2022/04/17 05:39:41;;;;;;;;;;;;;;;18.25;43.27;102990.56;4979864;28;19917;-74
2022/04/17 05:42:06;;;;;;;;;;;;;;;18.38;42.24;102991.72;4979694;28;19914;-74
2022/04/17 05:44:32;;;;;;;;;;;;;;;18.73;41.59;102988.94;4963653;28;19918;-75
2022/04/17 05:46:59;;;;;;;;;;;;;;;19.28;39.97;102992.63;4979658;28;20328;-74
2022/04/17 05:49:24;;;;;;;;;;;;;;;19.65;39.12;103000.19;4997224;28;19926;-72
2022/04/17 05:51:50;;;;;;;;;;;;;;;19.83;38.52;102990.06;4979852;28;19969;-75
2022/04/17 05:54:15;;;;;;;;;;;;;;;19.96;38.05;102988.50;4979819;28;19914;-72
2022/04/17 05:56:40;;;;;;;;;;;;;;;20.27;37.82;102986.31;4997653;28;19918;-76
2022/04/17 05:59:07;;;;;;;;;;;;;;;20.53;37.37;102982.31;4979808;28;20016;-75
2022/04/17 06:01:32;;;;;;;;;;;;;;;20.72;37.11;102979.94;4997331;28;20323;-73
2022/04/17 06:03:58;;;;;;;;;;;;;;;20.88;36.40;102989.72;4963684;28;19918;-77
2022/04/17 06:06:23;;;;;;;;;;;;;;;21.20;35.59;102983.03;4977925;28;19918;-76
2022/04/17 06:08:49;;;;;;;;;;;;;;;21.51;34.68;102992.06;4944504;28;19918;-75
2022/04/17 06:11:14;;;;;;;;;;;;;;;21.88;34.01;102972.25;4956959;28;19931;-76
2022/04/17 06:13:40;;;;;;;;;;;;;;;23.01;32.10;102984.13;4977706;28;19921;-74
2022/04/17 06:16:05;;;;;;;;;;;;;;;24.87;28.90;102975.84;4977219;28;19942;-75
2022/04/17 06:18:31;;;;;;;;;;;;;;;26.13;26.91;102969.47;4977625;28;19914;-76
2022/04/17 06:20:56;;;;;;;;;;;;;;;26.98;25.24;102968.31;4960482;28;19918;-76
2022/04/17 06:23:21;;;;;;;;;;;;;;;27.17;24.64;102968.91;4960435;28;19914;-77
2022/04/17 06:25:47;;;;;;;;;;;;;;;27.44;24.57;102970.25;4960422;28;19924;-77
2022/04/17 06:28:12;;;;;;;;;;;;;;;27.19;25.15;102964.47;4960587;28;19979;-77
2022/04/17 06:30:37;;;;;;;;;;;;;;;27.20;25.05;102966.22;4943995;28;19926;-75
2022/04/17 06:33:02;;;;;;;;;;;;;;;27.59;24.25;102958.50;4960057;28;19922;-77
2022/04/17 06:35:28;;;;;;;;;;;;;;;27.62;24.08;102967.25;4943953;28;19933;-80
2022/04/17 06:37:57;;;;;;;;;;;;;;;26.73;25.05;102954.63;4960406;28;19953;-76
2022/04/17 06:40:27;;;;;;;;;;;;;;;24.76;27.23;102961.84;4960072;28;19921;-77
2022/04/17 06:42:54;;;;;;;;;;;;;;;24.37;26.80;102964.69;4961232;28;19921;-75
2022/04/17 06:45:23;;;;;;;;;;;;;;;24.60;26.39;102954.06;4961409;28;19922;-76
2022/04/17 06:47:49;;;;;;;;;;;;;;;24.20;26.22;102956.00;4961100;28;19925;-77
2022/04/17 06:50:15;;;;;;;;;;;;;;;23.72;26.49;102956.09;4961324;28;19920;-76
2022/04/17 06:52:40;;;;;;;;;;;;;;;23.66;27.04;102957.84;4960569;28;19961;-79
2022/04/17 06:55:08;;;;;;;;;;;;;;;23.65;26.11;102954.38;4945479;28;19957;-78
2022/04/17 06:57:34;;;;;;;;;;;;;;;23.44;26.51;102943.88;4982287;28;20356;-76
2022/04/17 07:00:07;;;;;;;;;;;;;;;23.35;26.36;102957.88;4965803;28;19914;-76
2022/04/17 07:02:32;;;;;;;;;;;;;;;23.53;25.48;102955.25;4960955;28;19993;-77
2022/04/17 07:04:57;;;;;;;;;;;;;;;23.53;25.74;102952.59;4959927;28;19968;-75
2022/04/17 07:07:23;;;;;;;;;;;;;;;23.32;26.24;102953.53;4959549;28;20337;-74
2022/04/17 07:09:48;;;;;;;;;;;;;;;23.22;25.70;102951.75;4943521;28;20385;-75
2022/04/17 07:12:13;;;;;;;;;;;;;;;23.20;25.74;102953.50;4960888;28;20419;-74
2022/04/17 07:14:39;;;;;;;;;;;;;;;23.60;25.64;102948.22;4975910;28;19926;-76
2022/04/17 07:17:04;;;;;;;;;;;;;;;24.74;23.80;102939.97;4968918;28;19920;-74
2022/04/17 07:19:30;;;;;;;;;;;;;;;26.17;21.75;102933.34;4983132;28;19940;-73
2022/04/17 07:21:55;;;;;;;;;;;;;;;26.87;20.65;102936.78;4969150;28;19921;-73
2022/04/17 07:24:26;;;;;;;;;;;;;;;26.97;20.32;102930.47;4974328;28;19914;-74
2022/04/17 07:26:56;;;;;;;;;;;;;;;26.52;20.51;102932.88;4972325;28;19914;-74
2022/04/17 07:29:22;;;;;;;;;;;;;;;26.67;20.66;102930.06;4985842;28;19914;-76
2022/04/17 07:31:49;;;;;;;;;;;;;;;26.32;20.76;102927.88;4976828;28;19897;-76
2022/04/17 07:34:14;;;;;;;;;;;;;;;27.01;20.04;102929.53;4976356;28;19914;-76
2022/04/17 07:36:39;;;;;;;;;;;;;;;27.54;19.29;102928.63;4975639;28;19964;-76
2022/04/17 07:39:05;;;;;;;;;;;;;;;28.01;18.45;102922.44;4991911;28;19918;-77
2022/04/17 07:41:30;;;;;;;;;;;;;;;28.50;17.93;102924.03;4966559;28;19918;-77
2022/04/17 07:43:55;;;;;;;;;;;;;;;29.02;17.41;102921.03;4981463;28;19953;-78
2022/04/17 07:46:20;;;;;;;;;;;;;;;29.32;16.56;102909.66;4960995;28;20427;-78
2022/04/17 07:48:46;;;;;;;;;;;;;;;29.24;16.96;102908.97;4943683;28;19972;-76
2022/04/17 07:51:11;;;;;;;;;;;;;;;29.36;16.54;102909.59;4945721;28;19925;-77
2022/04/17 07:53:36;;;;;;;;;;;;;;;29.22;16.56;102912.59;4944749;28;19944;-77
2022/04/17 07:56:02;;;;;;;;;;;;;;;29.06;17.01;102905.00;4977288;28;19918;-78
2022/04/17 07:58:35;;;;;;;;;;;;;;;28.96;16.86;102899.97;4975839;28;19925;-77
2022/04/17 08:01:10;;;;;;;;;;;;;;;28.84;16.90;102906.47;4959697;28;19925;-77
2022/04/17 08:03:37;;;;;;;;;;;;;;;28.62;17.19;102909.63;4958457;28;20007;-77
2022/04/17 08:06:05;;;;;;;;;;;;;;;28.58;17.71;102904.44;4958890;28;19921;-77
2022/04/17 08:08:31;;;;;;;;;;;;;;;28.56;17.76;102903.59;4942655;28;19918;-77
2022/04/17 08:10:56;;;;;;;;;;;;;;;28.17;17.96;102901.78;4975143;28;19945;-76
2022/04/17 08:13:21;;;;;;;;;;;;;;;27.99;18.22;102900.41;4942194;28;20028;-76
2022/04/17 08:15:47;;;;;;;;;;;;;;;27.74;18.12;102894.72;4958352;28;19965;-74
2022/04/17 08:18:12;;;;;;;;;;;;;;;26.88;19.18;102910.34;4942255;28;19922;-75
2022/04/17 08:20:37;;;;;;;;;;;;;;;24.99;21.55;102909.91;4942171;28;19925;-74
2022/04/17 08:23:03;;;;;;;;;;;;;;;23.50;23.81;102915.84;4975521;28;19914;-75
2022/04/17 08:25:28;;;;;;;;;;;;;;;22.89;24.73;102921.94;4958072;28;19973;-74
2022/04/17 08:27:55;;;;;;;;;;;;;;;22.51;25.31;102919.25;4958351;28;19972;-74
2022/04/17 08:30:27;;;;;;;;;;;;;;;22.07;25.97;102915.56;4975389;28;20385;-81
2022/04/17 08:32:53;;;;;;;;;;;;;;;20.75;39.79;102925.00;4957949;28;20066;-79
2022/04/17 08:35:19;;;;;;;;;;;;;;;19.72;42.20;102926.31;4959739;28;19997;-76
2022/04/17 08:37:45;;;;;;;;;;;;;;;19.25;41.91;102926.41;4962260;28;19918;-75
2022/04/17 08:40:11;;;;;;;;;;;;;;;19.08;46.03;102933.97;4946915;28;19941;-74
2022/04/17 08:42:36;;;;;;;;;;;;;;;19.10;49.38;102929.66;4962115;28;20005;-76
2022/04/17 08:45:02;;;;;;;;;;;;;;;19.13;52.40;102927.09;4946621;28;20393;-75
2022/04/17 08:47:28;;;;;;;;;;;;;;;19.10;53.78;102929.66;4963148;28;20466;-75
2022/04/17 08:49:56;;;;;;;;;;;;;;;19.06;53.95;102927.84;4979663;28;19922;-75
2022/04/17 08:52:21;;;;;;;;;;;;;;;19.06;52.43;102925.25;4962060;28;20029;-75
2022/04/17 08:54:48;;;;;;;;;;;;;;;19.00;55.19;102926.00;4979687;28;20430;-74
2022/04/17 08:57:13;;;;;;;;;;;;;;;18.96;53.51;102918.09;4979331;28;19981;-74
2022/04/17 08:59:38;;;;;;;;;;;;;;;18.92;55.91;102917.16;4961761;28;20005;-77
2022/04/17 09:02:10;;;;;;;;;;;;;;;18.92;55.15;102911.94;4961457;28;19922;-75
2022/04/17 09:04:36;;;;;;;;;;;;;;;18.93;47.50;102915.44;4961647;28;20403;-74
2022/04/17 09:07:01;;;;;;;;;;;;;;;18.91;54.67;102911.06;4961730;28;19957;-74
2022/04/17 09:09:28;;;;;;;;;;;;;;;18.94;54.26;102911.97;4961989;28;20017;-75
2022/04/17 09:11:56;;;;;;;;;;;;;;;18.90;55.76;102908.41;4961560;28;19926;-76
2022/04/17 09:14:22;;;;;;;;;;;;;;;18.91;54.47;102910.19;4946154;28;19965;-74
2022/04/17 09:16:49;;;;;;;;;;;;;;;18.89;52.62;102904.94;4945541;28;19961;-74
2022/04/17 09:19:16;;;;;;;;;;;;;;;18.89;52.40;102909.28;4978677;28;20373;-74
2022/04/17 09:21:41;;;;;;;;;;;;;;;18.91;47.93;102905.84;4961110;28;19914;-74
2022/04/17 09:24:14;;;;;;;;;;;;;;;18.86;52.39;102909.25;4961159;28;19915;-74
2022/04/17 09:26:51;;;;;;;;;;;;;;;18.84;50.94;102898.78;4961792;28;19950;-74
2022/04/17 09:29:20;;;;;;;;;;;;;;;18.87;50.94;102898.81;4978725;28;19914;-74
2022/04/17 09:31:47;;;;;;;;;;;;;;;18.83;48.42;102894.38;4978431;28;20387;-75
2022/04/17 09:34:13;;;;;;;;;;;;;;;18.83;48.77;102890.91;4961658;28;19914;-77
2022/04/17 09:36:44;;;;;;;;;;;;;;;18.82;48.57;102891.78;4961555;28;19928;-77
2022/04/17 09:39:10;;;;;;;;;;;;;;;18.77;47.39;102890.75;4962231;28;20383;-78
2022/04/17 09:41:50;;;;;;;;;;;;;;;18.78;48.25;102889.97;4961106;28;19914;-77
2022/04/17 09:44:32;;;;;;;;;;;;;;;18.80;49.56;102885.66;4961783;28;19925;-78
2022/04/17 09:46:58;;;;;;;;;;;;;;;18.80;48.30;102883.03;4961264;28;19921;-75
2022/04/17 09:49:23;;;;;;;;;;;;;;;18.79;49.42;102884.78;4945020;28;19918;-77
2022/04/17 09:51:49;;;;;;;;;;;;;;;18.79;46.63;102871.72;4960908;28;19914;-76
2022/04/17 09:54:14;;;;;;;;;;;;;;;18.80;50.25;102872.59;4960760;28;19922;-76
2022/04/17 09:56:40;;;;;;;;;;;;;;;18.85;45.48;102873.56;4960578;28;19922;-75
2022/04/17 09:59:16;;;;;;;;;;;;;;;18.81;47.18;102863.91;4960238;28;19914;-75
2022/04/17 10:01:44;;;;;;;;;;;;;;;18.81;45.69;102859.56;4977692;28;19949;-76
2022/04/17 10:04:09;;;;;;;;;;;;;;;18.80;47.81;102855.22;4960280;28;20340;-76
2022/04/17 10:06:35;;;;;;;;;;;;;;;18.79;46.88;102850.88;4944450;28;20105;-75
2022/04/17 10:09:01;;;;;;;;;;;;;;;18.84;49.07;102848.34;4944336;28;20365;-78
2022/04/17 10:11:27;;;;;;;;;;;;;;;18.95;45.38;102841.56;4960060;28;19921;-79
2022/04/17 10:13:53;;;;;;;;;;;;;;;18.96;46.98;102843.31;4977248;28;19918;-83
2022/04/17 10:16:20;;;;;;;;;;;;;;;19.01;44.61;102839.06;4960624;28;19923;-76
2022/04/17 10:18:45;;;;;;;;;;;;;;;19.02;45.18;102835.59;4960977;28;19995;-77
2022/04/17 10:21:12;;;;;;;;;;;;;;;19.05;47.93;102837.34;4944041;28;20369;-76
2022/04/17 10:23:42;;;;;;;;;;;;;;;19.09;46.38;102827.00;4960026;28;20005;-77
2022/04/17 10:26:08;;;;;;;;;;;;;;;19.10;45.50;102820.06;4960512;28;20288;-80
2022/04/17 10:28:38;;;;;;;;;;;;;;;19.11;43.07;102829.63;4977728;28;20373;-76
2022/04/17 10:31:10;;;;;;;;;;;;;;;19.11;46.94;102819.19;4961026;28;20333;-78
2022/04/17 10:33:35;;;;;;;;;;;;;;;19.10;45.21;102817.44;4959886;28;19914;-81
2022/04/17 10:36:03;;;;;;;;;;;;;;;18.99;47.00;102819.00;4959603;28;19918;-79
2022/04/17 10:38:39;;;;;;;;;;;;;;;19.02;45.40;102806.88;4959806;28;20300;-77
2022/04/17 10:43:58;;;;;;;;;;;;;;;18.83;42.88;102807.44;4936948;28;19914;-78
2022/04/17 10:46:24;;;;;;;;;;;;;;;18.76;42.41;102805.56;4976992;28;19918;-79
2022/04/17 10:48:55;;;;;;;;;;;;;;;18.62;42.27;102802.72;4959569;28;20318;-79
2022/04/17 10:51:26;;;;;;;;;;;;;;;18.66;39.80;102797.59;4959438;28;19946;-79
2022/04/17 10:54:00;;;;;;;;;;;;;;;18.76;40.87;102784.69;4959638;28;19936;-78
2022/04/17 10:56:25;;;;;;;;;;;;;;;18.82;40.34;102796.13;4959505;28;19931;-78
2022/04/17 10:58:55;;;;;;;;;;;;;;;18.86;39.52;102784.03;4959137;28;20063;-78
2022/04/17 11:01:46;;;;;;;;;;;;;;;18.90;39.04;102776.28;4959380;28;19914;-80
2022/04/17 11:04:15;;;;;;;;;;;;;;;18.97;37.02;102777.25;4956086;28;20320;-79
2022/04/17 11:06:42;;;;;;;;;;;;;;;19.04;36.76;102766.03;4943785;28;19918;-80
2022/04/17 11:09:18;;;;;;;;;;;;;;;19.10;39.13;102763.53;4959657;28;19918;-83
2022/04/17 11:11:45;;;;;;;;;;;;;;;19.16;39.31;102767.06;4959162;28;19914;-83
2022/04/17 11:14:16;;;;;;;;;;;;;;;19.17;39.81;102764.47;4959233;28;19961;-80
2022/04/17 11:16:46;;;;;;;;;;;;;;;19.19;36.66;102756.69;4959094;28;19922;-84
2022/04/17 11:19:13;;;;;;;;;;;;;;;19.21;39.37;102754.97;4959124;28;19921;-83
2022/04/17 11:21:50;;;;;;;;;;;;;;;19.20;39.86;102756.69;4958889;28;19914;-82
2022/04/17 11:24:15;;;;;;;;;;;;;;;19.18;40.44;102752.31;4958825;28;19918;-83
2022/04/17 11:26:53;;;;;;;;;;;;;;;19.17;35.99;102742.72;4958778;28;20403;-80
2022/04/17 11:29:34;;;;;;;;;;;;;;;19.18;38.50;102745.34;4958964;28;20005;-81
2022/04/17 11:32:00;;;;;;;;;;;;;;;19.18;38.77;102732.28;4958736;28;19921;-82
2022/04/17 11:34:39;;;;;;;;;;;;;;;19.20;38.77;102730.59;4942683;28;19918;-83
2022/04/17 11:37:05;;;;;;;;;;;;;;;19.23;39.56;102721.94;4958812;28;20016;-80
2022/04/17 11:39:31;;;;;;;;;;;;;;;19.22;39.33;102723.66;4942534;28;19922;-82
2022/04/17 11:41:57;;;;;;;;;;;;;;;19.24;38.15;102710.63;4958706;28;19918;-83
2022/04/17 11:44:22;;;;;;;;;;;;;;;19.21;38.60;102706.25;4942666;28;19918;-83
2022/04/17 11:46:48;;;;;;;;;;;;;;;19.23;38.67;102712.38;4958597;28;19919;-81
2022/04/17 11:49:13;;;;;;;;;;;;;;;19.25;35.95;102708.06;4958654;28;20332;-80
2022/04/17 11:51:44;;;;;;;;;;;;;;;19.25;37.25;102707.16;4942530;28;20356;-80
2022/04/17 11:54:28;;;;;;;;;;;;;;;19.25;36.94;102699.31;4958501;28;20328;-84
2022/04/17 11:56:54;;;;;;;;;;;;;;;19.29;34.71;102694.19;4958486;28;19918;-83
2022/04/17 11:59:19;;;;;;;;;;;;;;;19.29;38.28;102696.81;4942527;28;19965;-78
2022/04/17 12:01:44;;;;;;;;;;;;;;;19.24;38.49;102689.75;4942342;28;19922;-78
2022/04/17 12:04:20;;;;;;;;;;;;;;;19.10;36.58;102690.44;4958323;28;19925;-75
2022/04/17 12:06:45;;;;;;;;;;;;;;;19.05;35.61;102678.19;4958250;28;20367;-76
2022/04/17 12:09:11;;;;;;;;;;;;;;;19.00;35.68;102670.28;4957310;28;19969;-75
2022/04/17 12:11:39;;;;;;;;;;;;;;;19.11;38.30;102688.72;4942107;28;20345;-77
2022/04/17 12:14:05;;;;;;;;;;;;;;;19.12;44.66;102669.59;4958285;28;20005;-76
2022/04/17 12:16:30;;;;;;;;;;;;;;;19.06;50.23;102674.75;4958107;28;20336;-76
2022/04/17 12:18:56;;;;;;;;;;;;;;;19.05;50.90;102667.75;4958207;28;19973;-80
2022/04/17 12:21:27;;;;;;;;;;;;;;;19.00;52.75;102667.69;4958190;28;19918;-76
2022/04/17 12:23:53;;;;;;;;;;;;;;;18.96;52.98;102668.50;4975294;28;19968;-76
2022/04/17 12:26:19;;;;;;;;;;;;;;;18.91;53.67;102664.97;4975288;28;19914;-75
2022/04/17 12:28:44;;;;;;;;;;;;;;;18.85;53.74;102654.44;4958061;28;20353;-75
2022/04/17 12:31:12;;;;;;;;;;;;;;;18.83;53.57;102654.41;4974984;28;19921;-75
2022/04/17 12:33:37;;;;;;;;;;;;;;;18.81;52.92;102652.63;4957787;28;19914;-76
2022/04/17 12:36:09;;;;;;;;;;;;;;;18.81;52.87;102652.63;4941856;28;19928;-76
2022/04/17 12:38:35;;;;;;;;;;;;;;;18.79;52.41;102650.03;4957954;28;20352;-75
2022/04/17 12:41:01;;;;;;;;;;;;;;;18.81;52.74;102653.50;4957781;28;20377;-75
2022/04/17 12:43:27;;;;;;;;;;;;;;;18.81;52.67;102648.28;4957817;28;19966;-74
2022/04/17 12:46:00;;;;;;;;;;;;;;;18.80;52.53;102637.84;4975095;28;20389;-77
2022/04/17 12:48:25;;;;;;;;;;;;;;;18.80;52.52;102643.06;4958092;28;19914;-75
2022/04/17 12:50:54;;;;;;;;;;;;;;;18.80;52.73;102632.63;4975015;28;20380;-76
2022/04/17 12:53:20;;;;;;;;;;;;;;;18.77;51.70;102635.16;4957830;28;19914;-75
2022/04/17 12:55:45;;;;;;;;;;;;;;;18.81;52.16;102631.78;4941568;28;19969;-76
2022/04/17 12:58:10;;;;;;;;;;;;;;;18.82;52.68;102620.50;4974902;28;19945;-75
2022/04/17 13:00:35;;;;;;;;;;;;;;;18.82;52.16;102612.66;4941714;28;19918;-75
2022/04/17 13:03:27;;;;;;;;;;;;;;;18.82;52.08;102605.72;4957646;28;19918;-75
2022/04/17 13:05:59;;;;;;;;;;;;;;;18.85;52.35;102597.91;4971996;28;19915;-76
2022/04/17 13:08:24;;;;;;;;;;;;;;;18.87;52.33;102597.94;4957798;28;20433;-76
2022/04/17 13:10:49;;;;;;;;;;;;;;;18.85;51.98;102592.69;4975085;28;19969;-75
2022/04/17 13:13:15;;;;;;;;;;;;;;;18.86;52.45;102596.22;4957398;28;19926;-74
2022/04/17 13:15:40;;;;;;;;;;;;;;;18.90;51.55;102592.75;4957481;28;19993;-75
2022/04/17 13:18:05;;;;;;;;;;;;;;;18.88;50.79;102584.06;4941702;28;19919;-76
2022/04/17 13:20:34;;;;;;;;;;;;;;;18.90;51.19;102585.84;4958116;28;19918;-75
2022/04/17 13:22:59;;;;;;;;;;;;;;;18.91;51.20;102574.53;4961241;28;19915;-75
2022/04/17 13:25:25;;;;;;;;;;;;;;;18.94;50.91;102568.47;4978354;28;19918;-75
2022/04/17 13:27:51;;;;;;;;;;;;;;;18.96;47.84;102568.50;4978426;28;19914;-75
2022/04/17 13:30:18;;;;;;;;;;;;;;;18.96;50.11;102552.84;4961006;28;19914;-75
2022/04/17 13:32:43;;;;;;;;;;;;;;;18.95;50.29;102551.97;4978430;28;19914;-75
2022/04/17 13:35:10;;;;;;;;;;;;;;;18.98;49.88;102556.34;4944939;28;19929;-74
2022/04/17 13:40:19;;;;;;;;;;;;;;;19.01;51.06;102536.41;4978493;28;19937;-75
2022/04/17 13:42:45;;;;;;;;;;;;;;;19.02;50.21;102532.91;4960809;28;19910;-74
2022/04/17 13:45:10;;;;;;;;;;;;;;;19.05;50.24;102529.47;4977954;28;19914;-76
2022/04/17 13:47:36;;;;;;;;;;;;;;;19.07;49.89;102528.59;4977848;28;19969;-76
2022/04/17 13:50:05;;;;;;;;;;;;;;;19.07;49.46;102515.56;4960464;28;19914;-76
2022/04/17 13:52:31;;;;;;;;;;;;;;;19.09;49.54;102518.19;4977877;28;19914;-75
2022/04/17 13:54:56;;;;;;;;;;;;;;;19.10;47.48;102509.53;4960700;28;20013;-77
2022/04/17 13:57:21;;;;;;;;;;;;;;;19.13;45.89;102504.34;4977758;28;19925;-75
2022/04/17 13:59:47;;;;;;;;;;;;;;;19.17;43.24;102506.13;4960777;28;20004;-77
2022/04/17 14:02:12;;;;;;;;;;;;;;;19.17;45.45;102500.91;4977703;28;19986;-75
2022/04/17 14:04:38;;;;;;;;;;;;;;;19.22;43.61;102499.19;4944344;28;19917;-75
2022/04/17 14:07:07;;;;;;;;;;;;;;;19.24;44.49;102488.78;4960241;28;19914;-77
2022/04/17 14:09:33;;;;;;;;;;;;;;;19.24;45.70;102492.25;4960389;28;19914;-75
2022/04/17 14:11:58;;;;;;;;;;;;;;;19.26;45.58;102492.28;4960205;28;19920;-76
2022/04/17 14:14:24;;;;;;;;;;;;;;;19.27;47.43;102494.03;4977214;28;19926;-76
2022/04/17 14:16:49;;;;;;;;;;;;;;;19.27;47.25;102483.56;4960031;28;19925;-75
2022/04/17 14:19:14;;;;;;;;;;;;;;;19.25;47.70;102488.81;4960077;28;20420;-76
2022/04/17 14:21:40;;;;;;;;;;;;;;;19.26;43.31;102474.00;4943945;28;20361;-76
2022/04/17 14:24:05;;;;;;;;;;;;;;;19.26;45.83;102472.28;4944088;28;20009;-76
2022/04/17 14:26:30;;;;;;;;;;;;;;;19.29;46.46;102468.81;4959871;28;20008;-75
2022/04/17 14:28:55;;;;;;;;;;;;;;;19.28;44.72;102460.09;4960102;28;19984;-75
2022/04/17 14:31:21;;;;;;;;;;;;;;;19.28;44.72;102465.34;4960137;28;19918;-75
2022/04/17 14:33:46;;;;;;;;;;;;;;;19.30;42.98;102460.13;4976546;28;19918;-75
2022/04/17 14:36:13;;;;;;;;;;;;;;;19.32;45.00;102461.03;4959819;28;19984;-77
2022/04/17 14:38:38;;;;;;;;;;;;;;;19.36;44.97;102452.38;4944369;28;20012;-76
2022/04/17 14:41:03;;;;;;;;;;;;;;;19.35;45.58;102458.44;4943788;28;20017;-75
2022/04/17 14:43:28;;;;;;;;;;;;;;;19.37;46.94;102450.63;4943875;28;20250;-75
2022/04/17 14:45:54;;;;;;;;;;;;;;;19.36;46.75;102452.38;4943533;28;19972;-75
2022/04/17 14:48:19;;;;;;;;;;;;;;;19.32;46.34;102443.63;4943479;28;20020;-76
2022/04/17 14:50:45;;;;;;;;;;;;;;;19.28;45.50;102435.75;4976963;28;19922;-76
2022/04/17 14:53:10;;;;;;;;;;;;;;;19.23;45.75;102437.47;4959313;28;20485;-76
2022/04/17 14:55:40;;;;;;;;;;;;;;;19.21;44.86;102431.34;4943422;28;20325;-77
2022/04/17 14:58:06;;;;;;;;;;;;;;;19.22;41.80;102430.47;4959395;28;19914;-76
2022/04/17 15:00:31;;;;;;;;;;;;;;;19.22;43.98;102430.47;4976987;28;20280;-76
2022/04/17 15:02:57;;;;;;;;;;;;;;;19.25;42.67;102420.03;4976850;28;19938;-76
2022/04/17 15:05:22;;;;;;;;;;;;;;;19.25;41.07;102409.59;4961363;28;20379;-80
2022/04/17 15:07:47;;;;;;;;;;;;;;;19.27;42.18;102405.28;4959579;28;19914;-81
2022/04/17 15:10:12;;;;;;;;;;;;;;;19.27;40.88;102406.19;4959315;28;20369;-79
2022/04/17 15:12:39;;;;;;;;;;;;;;;19.30;41.64;102406.19;4942994;28;19933;-78
2022/04/17 15:15:04;;;;;;;;;;;;;;;19.29;40.44;102401.84;4959039;28;20406;-79
2022/04/17 15:17:30;;;;;;;;;;;;;;;19.31;41.01;102399.22;4976223;28;19940;-80
2022/04/17 15:19:55;;;;;;;;;;;;;;;19.30;41.96;102395.75;4959072;28;19918;-80
2022/04/17 15:22:21;;;;;;;;;;;;;;;19.31;42.29;102394.91;4959017;28;20285;-79
2022/04/17 15:24:46;;;;;;;;;;;;;;;19.28;41.45;102389.63;4958814;28;19914;-80
2022/04/17 15:27:11;;;;;;;;;;;;;;;19.30;40.32;102380.09;4975983;28;19922;-80
2022/04/17 15:29:37;;;;;;;;;;;;;;;19.31;41.60;102376.63;4958750;28;19918;-79
2022/04/17 15:32:02;;;;;;;;;;;;;;;19.34;40.32;102378.38;4958791;28;19914;-78
2022/04/17 15:34:27;;;;;;;;;;;;;;;19.33;40.63;102379.22;4958826;28;20013;-80
2022/04/17 15:36:53;;;;;;;;;;;;;;;19.32;39.14;102372.28;4958638;28;19918;-80
2022/04/17 15:39:18;;;;;;;;;;;;;;;19.34;39.46;102373.16;4958770;28;19918;-80
2022/04/17 15:41:43;;;;;;;;;;;;;;;19.35;40.34;102369.69;4958707;28;20377;-80
2022/04/17 15:49:37;;;;;;;;;;;;;;;19.37;40.98;102365.34;4961675;28;19925;-78
2022/04/17 15:52:02;;;;;;;;;;;;;;;19.37;39.88;102361.88;4975809;28;19918;-78
2022/04/17 15:54:28;;;;;;;;;;;;;;;19.37;39.86;102357.50;4958875;28;19914;-81
2022/04/17 15:56:53;;;;;;;;;;;;;;;19.36;39.31;102361.00;4942363;28;20385;-80
2022/04/17 15:59:20;;;;;;;;;;;;;;;19.36;39.56;102355.78;4958631;28;19925;-79
2022/04/17 16:01:46;;;;;;;;;;;;;;;19.37;39.31;102354.91;4958731;28;19918;-79
2022/04/17 16:04:11;;;;;;;;;;;;;;;19.36;38.99;102350.56;4958129;28;19918;-81
2022/04/17 16:06:36;;;;;;;;;;;;;;;19.37;39.63;102348.81;4975591;28;19918;-79
2022/04/17 16:09:01;;;;;;;;;;;;;;;19.36;39.09;102344.44;4958386;28;19922;-79
2022/04/17 16:11:26;;;;;;;;;;;;;;;19.36;40.11;102341.81;4942317;28;20008;-82
2022/04/17 16:13:52;;;;;;;;;;;;;;;19.33;40.34;102340.06;4957907;28;19933;-79
2022/04/17 16:16:17;;;;;;;;;;;;;;;19.33;39.63;102334.84;4958152;28;19918;-78
2022/04/17 16:18:43;;;;;;;;;;;;;;;19.34;39.41;102341.84;4975735;28;19922;-79
2022/04/17 16:21:08;;;;;;;;;;;;;;;19.34;39.50;102336.63;4975619;28;19918;-78
2022/04/17 16:23:34;;;;;;;;;;;;;;;19.35;40.19;102327.03;4958263;28;19924;-80
2022/04/17 16:25:59;;;;;;;;;;;;;;;19.35;39.42;102332.25;4975528;28;19914;-80
2022/04/17 16:28:24;;;;;;;;;;;;;;;19.33;39.23;102321.81;4941927;28;19969;-79
2022/04/17 16:30:50;;;;;;;;;;;;;;;19.31;38.44;102333.97;4957975;28;19962;-79
2022/04/17 16:33:15;;;;;;;;;;;;;;;19.32;39.81;102325.28;4958380;28;19929;-80
2022/04/17 16:35:41;;;;;;;;;;;;;;;19.33;39.40;102316.59;4958105;28;19922;-82
2022/04/17 16:38:06;;;;;;;;;;;;;;;19.33;39.70;102316.59;4975294;28;19922;-79
2022/04/17 16:40:31;;;;;;;;;;;;;;;19.33;39.48;102319.19;4958283;28;19914;-79
2022/04/17 16:42:57;;;;;;;;;;;;;;;19.35;40.02;102311.38;4941908;28;19918;-80
2022/04/17 16:45:22;;;;;;;;;;;;;;;19.35;39.93;102312.25;4957991;28;19977;-79
2022/04/17 16:47:47;;;;;;;;;;;;;;;19.36;40.37;102315.72;4958321;28;19950;-79
2022/04/17 16:50:13;;;;;;;;;;;;;;;19.33;40.24;102312.22;4976181;28;19921;-81
2022/04/17 16:52:38;;;;;;;;;;;;;;;19.33;39.97;102309.63;4958400;28;19940;-79
2022/04/17 16:55:04;;;;;;;;;;;;;;;19.36;40.62;102307.91;4958353;28;20399;-78
2022/04/17 17:00:13;;;;;;;;;;;;;;;19.32;40.33;102304.41;4979430;28;19925;-79
2022/04/17 17:02:38;;;;;;;;;;;;;;;19.34;40.98;102300.06;4978796;28;20300;-80
2022/04/17 17:05:04;;;;;;;;;;;;;;;19.32;40.01;102289.63;4945447;28;20009;-80
2022/04/17 17:07:29;;;;;;;;;;;;;;;19.31;40.18;102290.50;4961506;28;19918;-79
2022/04/17 17:09:56;;;;;;;;;;;;;;;19.30;40.58;102290.47;4979151;28;19949;-81
2022/04/17 17:12:21;;;;;;;;;;;;;;;19.30;40.74;102280.91;4978754;28;19918;-80
2022/04/17 17:14:46;;;;;;;;;;;;;;;19.33;41.12;102280.03;4945076;28;19918;-80
2022/04/17 17:17:12;;;;;;;;;;;;;;;19.30;40.31;102277.41;4961079;28;19960;-81
2022/04/17 17:19:37;;;;;;;;;;;;;;;19.28;40.38;102276.53;4961076;28;19918;-79
2022/04/17 17:22:03;;;;;;;;;;;;;;;19.29;40.71;102271.34;4945464;28;19925;-84
2022/04/17 17:24:28;;;;;;;;;;;;;;;19.28;40.43;102266.97;4978907;28;20432;-78
2022/04/17 17:26:53;;;;;;;;;;;;;;;19.28;40.47;102261.75;4961379;28;20398;-81
2022/04/17 17:29:18;;;;;;;;;;;;;;;19.27;40.57;102265.22;4945521;28;19925;-80
2022/04/17 17:31:44;;;;;;;;;;;;;;;19.28;40.96;102274.78;4961037;28;19972;-81
2022/04/17 17:34:11;;;;;;;;;;;;;;;19.27;40.35;102269.56;4945203;28;19918;-79
2022/04/17 17:36:36;;;;;;;;;;;;;;;19.26;40.68;102270.44;4978840;28;19922;-81
2022/04/17 17:39:01;;;;;;;;;;;;;;;19.27;41.76;102273.06;4961498;28;19924;-80
2022/04/17 17:41:27;;;;;;;;;;;;;;;19.30;42.37;102270.47;4961070;28;20005;-79
2022/04/17 17:43:52;;;;;;;;;;;;;;;19.33;42.86;102269.59;4945180;28;19954;-78
2022/04/17 17:46:18;;;;;;;;;;;;;;;19.34;42.84;102271.38;4944652;28;19914;-80
2022/04/17 17:48:43;;;;;;;;;;;;;;;19.35;43.42;102275.69;4961213;28;20284;-78
2022/04/17 17:51:09;;;;;;;;;;;;;;;19.33;43.07;102265.25;4961015;28;20009;-79
2022/04/17 17:53:37;;;;;;;;;;;;;;;19.33;43.79;102264.38;4960764;28;19922;-77
2022/04/17 17:56:02;;;;;;;;;;;;;;;19.33;43.56;102270.47;4960764;28;19918;-77